createdAt,value
2019-05-16T00:00:49.713Z,90.41
2019-05-16T00:01:49.044Z,91.64
2019-05-16T00:02:49.001Z,91.55
2019-05-16T00:03:49.149Z,91.55
2019-05-16T00:04:48.936Z,91.27
2019-05-16T00:05:54.122Z,91.55
2019-05-16T00:06:48.875Z,91.46
2019-05-16T00:07:49.303Z,91.64
2019-05-16T00:08:48.811Z,90.98
2019-05-16T00:09:52.428Z,91.64
2019-05-16T00:10:48.817Z,92.03
2019-05-16T00:11:48.881Z,92.50
2019-05-16T00:12:48.840Z,92.27
2019-05-16T00:13:49.043Z,93.51
2019-05-16T00:14:49.062Z,93.12
2019-05-16T00:15:48.595Z,92.50
2019-05-16T00:16:48.564Z,93.27
2019-05-16T00:17:48.986Z,93.27
2019-05-16T00:18:48.495Z,92.98
2019-05-16T00:19:48.548Z,92.27
2019-05-16T00:20:49.254Z,92.55
2019-05-16T00:21:48.859Z,93.32
2019-05-16T00:22:48.622Z,92.98
2019-05-16T00:23:48.742Z,92.74
2019-05-16T00:24:48.731Z,92.32
2019-05-16T00:25:48.400Z,92.36
2019-05-16T00:26:48.234Z,92.98
2019-05-16T00:27:48.220Z,92.65
2019-05-16T00:28:48.585Z,93.22
2019-05-16T00:29:48.746Z,92.88
2019-05-16T00:30:48.732Z,92.84
2019-05-16T00:31:48.670Z,92.69
2019-05-16T00:32:48.321Z,92.74
2019-05-16T00:33:48.743Z,93.17
2019-05-16T00:34:47.990Z,93.36
2019-05-16T00:35:49.300Z,93.84
2019-05-16T00:36:48.807Z,93.74
2019-05-16T00:37:48.541Z,93.84
2019-05-16T00:38:48.481Z,93.65
2019-05-16T00:39:48.265Z,93.84
2019-05-16T00:40:48.698Z,93.08
2019-05-16T00:41:47.921Z,93.65
2019-05-16T00:42:49.125Z,93.84
2019-05-16T00:43:48.510Z,93.46
2019-05-16T00:44:48.000Z,93.46
2019-05-16T00:45:48.656Z,93.74
2019-05-16T00:46:48.602Z,93.17
2019-05-16T00:47:48.086Z,92.84
2019-05-16T00:48:48.707Z,93.27
2019-05-16T00:49:48.122Z,94.17
2019-05-16T00:50:48.176Z,93.88
2019-05-16T00:51:49.433Z,94.17
2019-05-16T00:52:48.816Z,93.51
2019-05-16T00:53:48.359Z,93.46
2019-05-16T00:54:48.629Z,93.70
2019-05-16T00:55:47.964Z,93.93
2019-05-16T00:56:48.737Z,94.08
2019-05-16T00:57:48.107Z,93.79
2019-05-16T00:58:48.402Z,94.03
2019-05-16T00:59:48.535Z,94.27
2019-05-16T01:00:50.053Z,95.22
2019-05-16T01:01:50.045Z,94.74
2019-05-16T01:02:48.592Z,94.27
2019-05-16T01:03:48.317Z,94.56
2019-05-16T01:04:48.736Z,94.46
2019-05-16T01:05:48.100Z,94.65
2019-05-16T01:06:48.468Z,94.27
2019-05-16T01:07:48.073Z,94.74
2019-05-16T01:08:48.774Z,95.51
2019-05-16T01:09:48.827Z,95.03
2019-05-16T01:10:48.500Z,95.12
2019-05-16T01:11:48.618Z,95.32
2019-05-16T01:12:48.106Z,94.56
2019-05-16T01:13:48.761Z,94.98
2019-05-16T01:14:47.797Z,95.12
2019-05-16T01:15:48.678Z,94.93
2019-05-16T01:16:48.644Z,95.03
2019-05-16T01:17:48.355Z,95.41
2019-05-16T01:18:48.687Z,95.37
2019-05-16T01:19:48.448Z,95.61
2019-05-16T01:20:48.067Z,95.61
2019-05-16T01:21:48.361Z,95.89
2019-05-16T01:22:48.816Z,97.32
2019-05-16T01:23:48.227Z,97.32
2019-05-16T01:24:49.053Z,96.46
2019-05-16T01:25:48.370Z,96.94
2019-05-16T01:26:48.367Z,97.13
2019-05-16T01:27:47.699Z,97.51
2019-05-16T01:28:48.204Z,96.46
2019-05-16T01:29:47.759Z,96.56
2019-05-16T01:30:48.302Z,96.17
2019-05-16T01:31:48.274Z,96.27
2019-05-16T01:32:48.928Z,96.36
2019-05-16T01:33:47.834Z,96.84
2019-05-16T01:34:48.206Z,96.27
2019-05-16T01:35:47.701Z,95.51
2019-05-16T01:36:48.452Z,95.79
2019-05-16T01:37:45.980Z,95.89
2019-05-16T01:38:47.916Z,95.79
2019-05-16T01:39:48.273Z,95.51
2019-05-16T01:40:45.907Z,96.27
2019-05-16T01:41:47.986Z,96.94
2019-05-16T01:42:45.822Z,97.03
2019-05-16T01:43:48.146Z,96.08
2019-05-16T01:44:45.807Z,96.56
2019-05-16T01:45:45.726Z,97.13
2019-05-16T01:46:47.952Z,97.41
2019-05-16T01:47:45.665Z,96.75
2019-05-16T01:48:45.629Z,97.22
2019-05-16T01:49:45.598Z,96.17
2019-05-16T01:50:47.942Z,97.03
2019-05-16T01:51:45.531Z,96.65
2019-05-16T01:52:45.501Z,96.94
2019-05-16T01:53:45.466Z,97.03
2019-05-16T01:54:45.436Z,97.32
2019-05-16T01:55:45.501Z,97.22
2019-05-16T01:56:45.372Z,97.13
2019-05-16T01:57:45.340Z,97.32
2019-05-16T01:58:45.313Z,96.84
2019-05-16T01:59:45.326Z,97.22
2019-05-16T02:00:52.451Z,97.22
2019-05-16T02:01:45.213Z,97.41
2019-05-16T02:02:45.182Z,97.03
2019-05-16T02:03:45.153Z,97.22
2019-05-16T02:04:45.189Z,96.46
2019-05-16T02:05:45.086Z,95.89
2019-05-16T02:06:51.591Z,95.03
2019-05-16T02:07:45.013Z,95.79
2019-05-16T02:08:45.033Z,95.61
2019-05-16T02:09:44.950Z,94.74
2019-05-16T02:10:44.922Z,93.60
2019-05-16T02:11:44.920Z,93.51
2019-05-16T02:12:44.903Z,94.65
2019-05-16T02:13:44.827Z,93.93
2019-05-16T02:14:44.796Z,94.27
2019-05-16T02:15:44.789Z,92.74
2019-05-16T02:16:44.737Z,94.27
2019-05-16T02:17:44.700Z,94.08
2019-05-16T02:18:44.665Z,93.74
2019-05-16T02:19:44.657Z,92.84
2019-05-16T02:20:44.799Z,93.79
2019-05-16T02:21:44.573Z,93.55
2019-05-16T02:22:44.534Z,93.55
2019-05-16T02:23:44.520Z,93.17
2019-05-16T02:24:44.506Z,92.17
2019-05-16T02:25:44.447Z,92.93
2019-05-16T02:26:44.428Z,93.17
2019-05-16T02:27:44.397Z,92.98
2019-05-16T02:28:44.413Z,92.60
2019-05-16T02:29:44.342Z,92.03
2019-05-16T02:30:44.280Z,92.60
2019-05-16T02:31:44.254Z,92.32
2019-05-16T02:32:44.255Z,92.32
2019-05-16T02:33:44.187Z,92.50
2019-05-16T02:34:44.268Z,92.69
2019-05-16T02:35:44.150Z,92.69
2019-05-16T02:36:44.097Z,92.98
2019-05-16T02:37:44.056Z,92.88
2019-05-16T02:38:44.060Z,93.08
2019-05-16T02:39:43.992Z,93.84
2019-05-16T02:40:43.969Z,93.55
2019-05-16T02:41:46.121Z,92.98
2019-05-16T02:42:43.899Z,92.88
2019-05-16T02:43:43.957Z,94.03
2019-05-16T02:44:43.836Z,94.32
2019-05-16T02:45:43.804Z,93.55
2019-05-16T02:46:43.774Z,93.65
2019-05-16T02:47:43.774Z,93.46
2019-05-16T02:48:43.707Z,93.74
2019-05-16T02:49:43.677Z,93.46
2019-05-16T02:50:43.645Z,94.22
2019-05-16T02:51:43.627Z,94.12
2019-05-16T02:52:43.582Z,94.12
2019-05-16T02:53:43.552Z,93.74
2019-05-16T02:54:43.517Z,94.32
2019-05-16T02:55:43.545Z,93.84
2019-05-16T02:56:43.460Z,93.65
2019-05-16T02:57:43.428Z,93.36
2019-05-16T02:58:44.968Z,94.22
2019-05-16T02:59:43.355Z,94.70
2019-05-16T03:00:43.328Z,93.65
2019-05-16T03:01:43.297Z,95.37
2019-05-16T03:02:43.265Z,94.12
2019-05-16T03:03:44.010Z,93.74
2019-05-16T03:04:44.277Z,93.65
2019-05-16T03:05:43.200Z,92.98
2019-05-16T03:06:43.159Z,93.55
2019-05-16T03:07:46.827Z,93.84
2019-05-16T03:08:43.112Z,93.74
2019-05-16T03:09:43.040Z,94.03
2019-05-16T03:10:43.014Z,94.98
2019-05-16T03:11:42.974Z,95.27
2019-05-16T03:12:42.977Z,94.03
2019-05-16T03:13:42.918Z,93.84
2019-05-16T03:14:42.893Z,93.84
2019-05-16T03:15:42.847Z,93.46
2019-05-16T03:16:42.887Z,93.84
2019-05-16T03:17:42.788Z,93.46
2019-05-16T03:18:42.756Z,92.88
2019-05-16T03:19:42.728Z,92.98
2019-05-16T03:20:42.802Z,93.27
2019-05-16T03:21:42.654Z,94.03
2019-05-16T03:22:42.630Z,93.74
2019-05-16T03:23:42.591Z,93.65
2019-05-16T03:24:42.688Z,93.84
2019-05-16T03:25:42.602Z,93.84
2019-05-16T03:26:42.496Z,92.60
2019-05-16T03:27:42.480Z,92.50
2019-05-16T03:28:42.447Z,93.65
2019-05-16T03:29:42.483Z,93.74
2019-05-16T03:30:44.744Z,93.84
2019-05-16T03:31:44.768Z,92.41
2019-05-16T03:32:45.318Z,92.88
2019-05-16T03:33:50.530Z,92.98
2019-05-16T03:34:43.973Z,93.17
2019-05-16T03:35:44.726Z,93.36
2019-05-16T03:36:44.134Z,92.88
2019-05-16T03:37:54.861Z,92.88
2019-05-16T03:38:42.154Z,93.55
2019-05-16T03:39:42.084Z,94.03
2019-05-16T03:40:42.059Z,93.17
2019-05-16T03:41:42.021Z,92.41
2019-05-16T03:42:41.990Z,93.27
2019-05-16T03:43:41.954Z,92.88
2019-05-16T03:44:41.938Z,93.84
2019-05-16T03:45:42.016Z,92.88
2019-05-16T03:46:41.863Z,93.74
2019-05-16T03:47:42.877Z,93.84
2019-05-16T03:48:41.794Z,92.60
2019-05-16T03:49:42.375Z,93.93
2019-05-16T03:50:41.733Z,93.84
2019-05-16T03:51:41.811Z,92.79
2019-05-16T03:52:43.653Z,92.41
2019-05-16T03:53:41.632Z,91.55
2019-05-16T03:54:42.157Z,93.27
2019-05-16T03:55:41.585Z,92.50
2019-05-16T03:56:41.546Z,92.46
2019-05-16T03:57:42.018Z,92.50
2019-05-16T03:58:41.923Z,93.65
2019-05-16T03:59:41.459Z,93.08
2019-05-16T04:00:45.402Z,92.79
2019-05-16T04:01:41.379Z,93.08
2019-05-16T04:02:45.217Z,92.69
2019-05-16T04:03:41.714Z,91.27
2019-05-16T04:04:41.869Z,91.46
2019-05-16T04:05:41.514Z,92.32
2019-05-16T04:06:41.760Z,92.50
2019-05-16T04:07:41.739Z,92.41
2019-05-16T04:08:41.495Z,92.88
2019-05-16T04:09:41.440Z,93.08
2019-05-16T04:10:41.090Z,92.88
2019-05-16T04:11:42.537Z,94.03
2019-05-16T04:12:42.228Z,93.08
2019-05-16T04:13:41.516Z,92.32
2019-05-16T04:14:41.217Z,91.55
2019-05-16T04:15:42.458Z,91.46
2019-05-16T04:16:41.526Z,91.55
2019-05-16T04:17:41.496Z,90.50
2019-05-16T04:18:41.994Z,89.26
2019-05-16T04:19:41.580Z,88.50
2019-05-16T04:20:40.818Z,89.54
2019-05-16T04:21:42.052Z,89.64
2019-05-16T04:22:41.159Z,89.26
2019-05-16T04:23:41.947Z,89.36
2019-05-16T04:24:41.805Z,89.45
2019-05-16T04:25:41.172Z,88.02
2019-05-16T04:26:41.335Z,88.98
2019-05-16T04:27:41.708Z,87.83
2019-05-16T04:28:41.237Z,87.59
2019-05-16T04:29:40.935Z,87.21
2019-05-16T04:30:41.571Z,86.02
2019-05-16T04:31:41.305Z,85.30
2019-05-16T04:32:41.948Z,85.49
2019-05-16T04:33:41.494Z,86.25
2019-05-16T04:34:41.799Z,85.06
2019-05-16T04:35:41.185Z,84.59
2019-05-16T04:36:40.791Z,83.92
2019-05-16T04:37:42.045Z,84.20
2019-05-16T04:38:42.873Z,84.30
2019-05-16T04:39:41.467Z,83.16
2019-05-16T04:40:42.465Z,83.06
2019-05-16T04:41:40.951Z,82.40
2019-05-16T04:42:41.725Z,81.73
2019-05-16T04:43:41.649Z,81.25
2019-05-16T04:44:41.760Z,82.01
2019-05-16T04:45:41.463Z,81.54
2019-05-16T04:46:41.030Z,81.82
2019-05-16T04:47:41.334Z,81.35
2019-05-16T04:48:41.646Z,81.54
2019-05-16T04:49:41.230Z,81.06
2019-05-16T04:50:41.923Z,81.25
2019-05-16T04:51:41.461Z,81.48
2019-05-16T04:52:41.931Z,81.38
2019-05-16T04:53:42.616Z,82.43
2019-05-16T04:54:41.955Z,81.20
2019-05-16T04:55:42.021Z,81.10
2019-05-16T04:56:41.292Z,81.48
2019-05-16T04:57:42.113Z,81.29
2019-05-16T04:58:40.862Z,80.05
2019-05-16T04:59:41.795Z,79.38
2019-05-16T05:00:42.012Z,79.10
2019-05-16T05:01:41.315Z,78.72
2019-05-16T05:02:41.807Z,78.52
2019-05-16T05:03:40.970Z,78.43
2019-05-16T05:04:41.388Z,78.62
2019-05-16T05:05:41.378Z,78.05
2019-05-16T05:06:40.518Z,77.57
2019-05-16T05:07:40.670Z,78.43
2019-05-16T05:08:50.618Z,79.38
2019-05-16T05:09:40.868Z,78.33
2019-05-16T05:10:40.679Z,78.72
2019-05-16T05:11:41.346Z,77.76
2019-05-16T05:12:40.845Z,77.19
2019-05-16T05:13:41.315Z,77.00
2019-05-16T05:14:41.630Z,76.90
2019-05-16T05:15:40.059Z,78.62
2019-05-16T05:16:41.301Z,78.81
2019-05-16T05:17:41.274Z,78.62
2019-05-16T05:18:40.903Z,78.23
2019-05-16T05:19:41.397Z,78.43
2019-05-16T05:20:40.988Z,77.67
2019-05-16T05:21:40.921Z,78.33
2019-05-16T05:22:39.752Z,77.57
2019-05-16T05:23:40.713Z,77.57
2019-05-16T05:24:40.575Z,77.57
2019-05-16T05:25:40.446Z,77.86
2019-05-16T05:26:41.132Z,77.57
2019-05-16T05:27:40.951Z,77.42
2019-05-16T05:28:40.235Z,77.32
2019-05-16T05:29:39.831Z,77.23
2019-05-16T05:30:40.708Z,76.46
2019-05-16T05:31:44.869Z,77.13
2019-05-16T05:32:41.050Z,76.37
2019-05-16T05:33:41.385Z,76.94
2019-05-16T05:34:39.824Z,77.42
2019-05-16T05:35:40.724Z,77.42
2019-05-16T05:36:40.884Z,76.65
2019-05-16T05:37:40.746Z,76.65
2019-05-16T05:38:40.252Z,76.56
2019-05-16T05:39:39.700Z,76.46
2019-05-16T05:40:40.424Z,77.13
2019-05-16T05:41:40.120Z,77.13
2019-05-16T05:42:39.931Z,76.65
2019-05-16T05:43:39.779Z,76.94
2019-05-16T05:44:40.170Z,76.75
2019-05-16T05:45:40.112Z,76.37
2019-05-16T05:46:39.991Z,76.56
2019-05-16T05:47:40.274Z,76.27
2019-05-16T05:48:37.994Z,76.65
2019-05-16T05:49:40.343Z,77.00
2019-05-16T05:50:39.999Z,76.46
2019-05-16T05:51:40.430Z,77.19
2019-05-16T05:52:37.861Z,77.13
2019-05-16T05:53:40.065Z,77.51
2019-05-16T05:54:40.578Z,78.28
2019-05-16T05:55:40.318Z,77.80
2019-05-16T05:56:39.793Z,77.23
2019-05-16T05:57:40.087Z,77.03
2019-05-16T05:58:37.676Z,76.94
2019-05-16T05:59:37.645Z,77.28
2019-05-16T06:00:40.401Z,77.28
2019-05-16T06:01:40.445Z,76.81
2019-05-16T06:02:39.963Z,77.19
2019-05-16T06:03:39.746Z,77.99
2019-05-16T06:04:39.438Z,77.23
2019-05-16T06:05:37.459Z,77.23
2019-05-16T06:06:37.422Z,76.84
2019-05-16T06:07:37.403Z,77.61
2019-05-16T06:08:37.369Z,77.23
2019-05-16T06:09:50.517Z,77.23
2019-05-16T06:10:37.305Z,76.75
2019-05-16T06:11:37.267Z,77.51
2019-05-16T06:12:37.245Z,79.04
2019-05-16T06:13:37.207Z,78.56
2019-05-16T06:14:37.173Z,77.61
2019-05-16T06:15:37.143Z,77.13
2019-05-16T06:16:37.114Z,77.70
2019-05-16T06:17:37.077Z,77.42
2019-05-16T06:18:37.048Z,77.51
2019-05-16T06:19:37.014Z,77.23
2019-05-16T06:20:36.987Z,76.84
2019-05-16T06:21:36.960Z,76.46
2019-05-16T06:22:36.929Z,76.75
2019-05-16T06:23:36.887Z,76.98
2019-05-16T06:24:36.862Z,77.26
2019-05-16T06:25:36.836Z,76.98
2019-05-16T06:26:36.800Z,77.32
2019-05-16T06:27:36.791Z,76.56
2019-05-16T06:28:36.739Z,77.32
2019-05-16T06:29:36.711Z,76.37
2019-05-16T06:30:36.712Z,77.03
2019-05-16T06:31:36.642Z,77.32
2019-05-16T06:32:36.611Z,77.13
2019-05-16T06:33:36.579Z,77.80
2019-05-16T06:34:36.552Z,77.80
2019-05-16T06:35:36.533Z,77.42
2019-05-16T06:36:36.486Z,77.70
2019-05-16T06:37:36.455Z,78.66
2019-05-16T06:38:36.422Z,79.43
2019-05-16T06:39:42.062Z,78.56
2019-05-16T06:40:36.401Z,78.37
2019-05-16T06:41:36.335Z,79.04
2019-05-16T06:42:36.305Z,79.28
2019-05-16T06:43:36.386Z,79.28
2019-05-16T06:44:36.241Z,79.57
2019-05-16T06:45:36.206Z,80.24
2019-05-16T06:46:43.960Z,80.19
2019-05-16T06:47:36.154Z,80.38
2019-05-16T06:48:36.112Z,80.28
2019-05-16T06:49:36.085Z,80.19
2019-05-16T06:50:36.051Z,80.15
2019-05-16T06:51:36.023Z,80.15
2019-05-16T06:52:35.995Z,79.99
2019-05-16T06:53:35.958Z,80.19
2019-05-16T06:54:35.928Z,79.71
2019-05-16T06:55:37.471Z,80.24
2019-05-16T06:56:35.867Z,80.09
2019-05-16T06:57:35.829Z,81.01
2019-05-16T06:58:45.697Z,80.19
2019-05-16T06:59:35.777Z,80.05
2019-05-16T07:00:35.744Z,80.24
2019-05-16T07:01:35.706Z,80.53
2019-05-16T07:02:35.698Z,80.72
2019-05-16T07:03:35.644Z,80.85
2019-05-16T07:04:35.614Z,80.33
2019-05-16T07:05:35.587Z,80.19
2019-05-16T07:06:51.745Z,80.15
2019-05-16T07:07:40.473Z,80.95
2019-05-16T07:08:40.146Z,80.15
2019-05-16T07:09:35.462Z,80.85
2019-05-16T07:10:35.420Z,80.19
2019-05-16T07:11:39.758Z,80.66
2019-05-16T07:12:36.968Z,81.43
2019-05-16T07:13:35.334Z,81.90
2019-05-16T07:14:35.326Z,81.43
2019-05-16T07:15:36.975Z,80.47
2019-05-16T07:16:35.264Z,79.33
2019-05-16T07:17:35.213Z,79.43
2019-05-16T07:18:35.182Z,78.94
2019-05-16T07:19:35.624Z,80.13
2019-05-16T07:20:35.124Z,80.09
2019-05-16T07:21:35.109Z,80.38
2019-05-16T07:22:35.050Z,80.19
2019-05-16T07:23:35.023Z,80.57
2019-05-16T07:24:34.998Z,79.52
2019-05-16T07:25:34.986Z,79.90
2019-05-16T07:26:34.947Z,79.43
2019-05-16T07:27:34.950Z,79.61
2019-05-16T07:28:34.932Z,80.24
2019-05-16T07:29:34.836Z,79.99
2019-05-16T07:30:34.803Z,79.67
2019-05-16T07:31:34.839Z,80.09
2019-05-16T07:32:34.736Z,79.80
2019-05-16T07:33:34.713Z,79.33
2019-05-16T07:34:34.683Z,79.33
2019-05-16T07:35:34.664Z,79.33
2019-05-16T07:36:34.614Z,79.43
2019-05-16T07:37:34.582Z,80.19
2019-05-16T07:38:34.600Z,80.19
2019-05-16T07:39:34.524Z,80.19
2019-05-16T07:40:34.500Z,80.28
2019-05-16T07:41:34.466Z,79.19
2019-05-16T07:42:34.484Z,79.38
2019-05-16T07:43:34.458Z,79.33
2019-05-16T07:44:36.051Z,79.33
2019-05-16T07:45:34.404Z,79.33
2019-05-16T07:46:34.304Z,80.19
2019-05-16T07:47:34.278Z,80.38
2019-05-16T07:48:34.406Z,80.28
2019-05-16T07:49:34.216Z,80.85
2019-05-16T07:50:34.177Z,80.57
2019-05-16T07:51:34.147Z,80.09
2019-05-16T07:52:36.305Z,80.66
2019-05-16T07:53:34.117Z,80.95
2019-05-16T07:54:34.530Z,79.99
2019-05-16T07:55:34.028Z,79.61
2019-05-16T07:56:33.994Z,79.52
2019-05-16T07:57:33.968Z,78.94
2019-05-16T07:58:33.957Z,79.33
2019-05-16T07:59:33.899Z,79.04
2019-05-16T08:00:49.202Z,79.33
2019-05-16T08:01:33.890Z,80.47
2019-05-16T08:02:33.813Z,80.28
2019-05-16T08:03:33.824Z,79.99
2019-05-16T08:04:33.751Z,79.61
2019-05-16T08:05:33.747Z,79.33
2019-05-16T08:06:34.109Z,78.85
2019-05-16T08:07:33.761Z,79.43
2019-05-16T08:08:33.627Z,79.61
2019-05-16T08:09:33.599Z,79.75
2019-05-16T08:10:40.651Z,80.04
2019-05-16T08:11:33.538Z,80.22
2019-05-16T08:12:33.569Z,79.94
2019-05-16T08:13:33.485Z,79.65
2019-05-16T08:14:35.166Z,78.89
2019-05-16T08:15:33.421Z,79.46
2019-05-16T08:16:33.385Z,78.89
2019-05-16T08:17:33.411Z,78.99
2019-05-16T08:18:33.386Z,79.46
2019-05-16T08:19:33.332Z,78.89
2019-05-16T08:20:33.338Z,78.70
2019-05-16T08:21:33.439Z,78.51
2019-05-16T08:22:33.290Z,78.70
2019-05-16T08:23:33.239Z,78.28
2019-05-16T08:24:36.029Z,78.79
2019-05-16T08:25:33.114Z,79.46
2019-05-16T08:26:38.853Z,80.32
2019-05-16T08:27:33.141Z,79.56
2019-05-16T08:28:33.013Z,79.17
2019-05-16T08:29:33.037Z,79.08
2019-05-16T08:30:32.964Z,79.36
2019-05-16T08:31:32.996Z,79.27
2019-05-16T08:32:32.915Z,78.89
2019-05-16T08:33:32.918Z,79.08
2019-05-16T08:34:32.826Z,79.36
2019-05-16T08:35:32.801Z,79.46
2019-05-16T08:36:32.757Z,78.99
2019-05-16T08:38:32.697Z,80.22
2019-05-16T08:39:34.540Z,79.56
2019-05-16T08:40:32.641Z,79.65
2019-05-16T08:41:32.724Z,79.02
2019-05-16T08:42:32.651Z,79.41
2019-05-16T08:43:32.587Z,79.79
2019-05-16T08:44:32.706Z,78.89
2019-05-16T08:45:32.534Z,79.31
2019-05-16T08:46:32.624Z,79.31
2019-05-16T08:47:32.440Z,79.12
2019-05-16T08:48:32.532Z,78.55
2019-05-16T08:49:32.363Z,77.87
2019-05-16T08:50:08.651Z,79.85
2019-05-16T08:50:35.911Z,77.87
2019-05-16T08:51:33.581Z,77.21
2019-05-16T08:52:32.269Z,77.21
2019-05-16T08:53:32.325Z,77.11
2019-05-16T08:54:32.244Z,77.11
2019-05-16T08:55:32.172Z,76.45
2019-05-16T08:56:32.206Z,77.72
2019-05-16T08:57:33.305Z,76.48
2019-05-16T08:58:33.117Z,77.15
2019-05-16T08:59:33.835Z,77.15
2019-05-16T09:00:33.394Z,76.48
2019-05-16T09:01:35.085Z,76.00
2019-05-16T09:02:36.430Z,74.95
2019-05-16T09:03:33.191Z,73.99
2019-05-16T09:04:33.820Z,72.69
2019-05-16T09:05:31.880Z,71.93
2019-05-16T09:06:32.257Z,71.26
2019-05-16T09:07:33.579Z,70.75
2019-05-16T09:08:31.840Z,70.46
2019-05-16T09:09:42.800Z,70.17
2019-05-16T09:10:49.815Z,70.36
2019-05-16T09:11:43.333Z,71.32
2019-05-16T09:12:32.082Z,71.22
2019-05-16T09:13:31.706Z,71.32
2019-05-16T09:14:35.218Z,72.18
2019-05-16T09:15:48.524Z,72.31
2019-05-16T09:16:31.726Z,72.41
2019-05-16T09:17:31.511Z,72.98
2019-05-16T09:18:40.634Z,73.17
2019-05-16T09:19:31.588Z,72.60
2019-05-16T09:20:31.480Z,71.68
2019-05-16T09:21:31.411Z,72.98
2019-05-16T09:22:31.395Z,72.88
2019-05-16T09:23:31.387Z,74.04
2019-05-16T09:24:31.335Z,73.08
2019-05-16T09:25:31.355Z,73.17
2019-05-16T09:26:31.291Z,72.60
2019-05-16T09:27:31.263Z,73.17
2019-05-16T09:28:31.205Z,73.94
2019-05-16T09:29:31.196Z,74.04
2019-05-16T09:30:31.165Z,73.94
2019-05-16T09:31:31.140Z,73.84
2019-05-16T09:32:31.116Z,73.80
2019-05-16T09:33:31.077Z,74.66
2019-05-16T09:34:31.116Z,75.09
2019-05-16T09:35:31.030Z,74.41
2019-05-16T09:36:30.960Z,73.65
2019-05-16T09:37:30.915Z,73.23
2019-05-16T09:38:30.935Z,73.61
2019-05-16T09:39:30.979Z,73.80
2019-05-16T09:40:30.878Z,74.13
2019-05-16T09:41:46.216Z,74.04
2019-05-16T09:42:30.766Z,74.13
2019-05-16T09:43:30.790Z,73.65
2019-05-16T09:44:30.749Z,73.88
2019-05-16T09:45:30.681Z,73.46
2019-05-16T09:46:30.692Z,73.40
2019-05-16T09:47:30.620Z,73.36
2019-05-16T09:48:30.634Z,73.97
2019-05-16T09:49:32.516Z,73.59
2019-05-16T09:50:30.532Z,72.92
2019-05-16T09:51:30.501Z,72.44
2019-05-16T09:52:30.491Z,72.54
2019-05-16T09:53:30.462Z,72.63
2019-05-16T09:54:30.416Z,73.02
2019-05-16T09:55:30.414Z,72.96
2019-05-16T09:56:30.376Z,72.67
2019-05-16T09:57:30.334Z,71.81
2019-05-16T09:58:31.994Z,71.62
2019-05-16T09:59:30.284Z,71.81
2019-05-16T10:00:30.248Z,72.09
2019-05-16T10:01:30.323Z,70.98
2019-05-16T10:02:30.195Z,71.37
2019-05-16T10:03:30.155Z,71.23
2019-05-16T10:04:30.129Z,72.09
2019-05-16T10:05:30.174Z,74.16
2019-05-16T10:06:30.077Z,72.83
2019-05-16T10:07:30.042Z,73.11
2019-05-16T10:08:30.025Z,73.24
2019-05-16T10:09:41.243Z,72.86
2019-05-16T10:10:29.959Z,72.48
2019-05-16T10:11:31.470Z,72.77
2019-05-16T10:12:29.895Z,73.15
2019-05-16T10:13:29.867Z,72.67
2019-05-16T10:14:29.862Z,72.77
2019-05-16T10:15:29.811Z,72.58
2019-05-16T10:16:29.776Z,72.90
2019-05-16T10:17:29.769Z,72.71
2019-05-16T10:18:29.726Z,72.52
2019-05-16T10:19:29.692Z,73.19
2019-05-16T10:20:29.682Z,72.90
2019-05-16T10:21:29.636Z,72.52
2019-05-16T10:22:29.606Z,72.80
2019-05-16T10:23:29.592Z,72.80
2019-05-16T10:24:29.562Z,71.94
2019-05-16T10:25:29.519Z,72.03
2019-05-16T10:26:29.497Z,72.23
2019-05-16T10:27:29.463Z,72.32
2019-05-16T10:28:29.441Z,72.61
2019-05-16T10:29:29.412Z,72.27
2019-05-16T10:30:29.384Z,72.03
2019-05-16T10:31:41.545Z,71.94
2019-05-16T10:32:29.325Z,73.13
2019-05-16T10:33:29.296Z,74.47
2019-05-16T10:34:29.263Z,74.51
2019-05-16T10:35:30.238Z,72.78
2019-05-16T10:36:29.211Z,72.91
2019-05-16T10:37:29.193Z,72.24
2019-05-16T10:38:29.169Z,71.70
2019-05-16T10:39:29.130Z,71.41
2019-05-16T10:40:29.109Z,70.90
2019-05-16T10:41:29.075Z,70.80
2019-05-16T10:42:29.357Z,70.90
2019-05-16T10:43:29.013Z,71.86
2019-05-16T10:44:28.986Z,71.95
2019-05-16T10:45:28.952Z,71.57
2019-05-16T10:46:28.928Z,71.61
2019-05-16T10:47:31.336Z,71.70
2019-05-16T10:48:28.867Z,71.61
2019-05-16T10:49:36.947Z,71.09
2019-05-16T10:50:28.855Z,71.03
2019-05-16T10:51:28.813Z,70.80
2019-05-16T10:52:28.760Z,70.80
2019-05-16T10:53:57.570Z,71.47
2019-05-16T10:54:28.736Z,72.33
2019-05-16T10:55:28.734Z,72.05
2019-05-16T10:56:28.655Z,72.63
2019-05-16T10:57:29.915Z,73.49
2019-05-16T10:58:37.146Z,72.85
2019-05-16T11:00:57.549Z,71.80
2019-05-16T11:01:31.335Z,72.08
2019-05-16T11:02:28.534Z,71.73
2019-05-16T11:03:28.530Z,71.45
2019-05-16T11:04:42.315Z,71.83
2019-05-16T11:05:33.629Z,70.90
2019-05-16T11:06:29.279Z,71.10
2019-05-16T11:07:29.806Z,70.23
2019-05-16T11:08:28.321Z,70.17
2019-05-16T11:09:28.287Z,70.65
2019-05-16T11:10:29.667Z,70.84
2019-05-16T11:11:28.250Z,70.07
2019-05-16T11:12:45.235Z,69.40
2019-05-16T11:13:28.285Z,69.60
2019-05-16T11:14:28.330Z,69.79
2019-05-16T11:15:28.124Z,68.92
2019-05-16T11:16:28.099Z,70.27
2019-05-16T11:17:28.085Z,70.84
2019-05-16T11:18:28.044Z,71.48
2019-05-16T11:19:28.464Z,70.97
2019-05-16T11:20:28.041Z,71.16
2019-05-16T11:21:27.962Z,71.35
2019-05-16T11:22:29.957Z,71.48
2019-05-16T11:23:31.298Z,71.19
2019-05-16T11:24:29.392Z,70.14
2019-05-16T11:25:31.836Z,70.75
2019-05-16T11:26:30.205Z,70.21
2019-05-16T11:27:27.816Z,69.69
2019-05-16T11:28:27.780Z,69.60
2019-05-16T11:29:27.786Z,70.07
2019-05-16T11:30:28.155Z,69.53
2019-05-16T11:31:27.704Z,68.99
2019-05-16T11:32:27.675Z,68.13
2019-05-16T11:33:28.363Z,67.39
2019-05-16T11:34:27.619Z,66.46
2019-05-16T11:35:27.592Z,66.33
2019-05-16T11:36:27.571Z,66.71
2019-05-16T11:37:28.032Z,67.26
2019-05-16T11:38:27.518Z,68.22
2019-05-16T11:39:27.493Z,68.99
2019-05-16T11:40:30.125Z,68.67
2019-05-16T11:41:27.742Z,69.02
2019-05-16T11:42:27.979Z,69.69
2019-05-16T11:43:27.889Z,70.94
2019-05-16T11:44:28.797Z,70.07
2019-05-16T11:45:27.345Z,70.04
2019-05-16T11:46:28.192Z,70.90
2019-05-16T11:47:27.345Z,71.35
2019-05-16T11:48:29.522Z,71.45
2019-05-16T11:49:27.688Z,71.73
2019-05-16T11:50:28.078Z,72.28
2019-05-16T11:51:27.423Z,73.04
2019-05-16T11:52:27.152Z,72.75
2019-05-16T11:53:28.301Z,73.04
2019-05-16T11:54:27.107Z,73.49
2019-05-16T11:55:33.603Z,74.01
2019-05-16T11:56:27.043Z,74.77
2019-05-16T11:57:27.021Z,74.58
2019-05-16T11:58:26.991Z,75.25
2019-05-16T11:59:26.966Z,75.35
2019-05-16T12:00:30.485Z,74.39
2019-05-16T12:01:27.532Z,74.87
2019-05-16T12:02:27.872Z,74.68
2019-05-16T12:03:28.195Z,74.62
2019-05-16T12:04:28.103Z,73.60
2019-05-16T12:05:27.246Z,72.73
2019-05-16T12:06:27.086Z,72.73
2019-05-16T12:07:33.760Z,72.16
2019-05-16T12:08:26.726Z,72.44
2019-05-16T12:09:33.881Z,72.54
2019-05-16T12:10:27.046Z,72.16
2019-05-16T12:11:27.419Z,72.38
2019-05-16T12:12:27.138Z,72.83
2019-05-16T12:13:31.877Z,71.96
2019-05-16T12:14:27.207Z,72.92
2019-05-16T12:15:27.335Z,72.34
2019-05-16T12:16:27.582Z,72.34
2019-05-16T12:17:28.004Z,71.52
2019-05-16T12:18:26.727Z,71.71
2019-05-16T12:19:33.914Z,71.42
2019-05-16T12:20:27.349Z,71.81
2019-05-16T12:21:27.436Z,72.38
2019-05-16T12:22:26.853Z,71.77
2019-05-16T12:23:27.561Z,71.58
2019-05-16T12:24:33.107Z,71.29
2019-05-16T12:25:27.333Z,72.31
2019-05-16T12:26:28.188Z,72.50
2019-05-16T12:27:32.690Z,72.79
2019-05-16T12:28:27.232Z,72.79
2019-05-16T12:29:28.224Z,72.99
2019-05-16T12:30:26.148Z,73.46
2019-05-16T12:31:26.121Z,73.56
2019-05-16T12:32:27.702Z,73.50
2019-05-16T12:33:27.390Z,73.02
2019-05-16T12:34:26.039Z,71.81
2019-05-16T12:35:27.764Z,71.97
2019-05-16T12:36:26.859Z,71.30
2019-05-16T12:37:27.602Z,72.07
2019-05-16T12:38:27.618Z,70.82
2019-05-16T12:39:26.816Z,70.15
2019-05-16T12:40:26.815Z,69.18
2019-05-16T12:41:28.540Z,70.53
2019-05-16T12:42:27.046Z,70.62
2019-05-16T12:43:44.222Z,70.53
2019-05-16T12:44:26.883Z,70.68
2019-05-16T12:45:27.489Z,71.17
2019-05-16T12:46:27.200Z,71.75
2019-05-16T12:47:25.714Z,71.75
2019-05-16T12:48:25.692Z,70.88
2019-05-16T12:49:25.663Z,70.68
2019-05-16T12:50:28.787Z,71.65
2019-05-16T12:51:26.464Z,71.84
2019-05-16T12:52:27.091Z,71.88
2019-05-16T12:53:31.764Z,71.69